Hauptseite
METAR-TAF:

METAR-TAF

Flughäfen :

Aigen im Ennstal, Österreich

Breite: 47-32N, Länge: 014-08E, Höhe: 638 m

METAR: fehlend

Zeit: 12:45 (10:45 UTC)

Prognose

Neuester Wetterbericht von vor 2 Stunden und 30 Minuten, um 08:15 UTC
Gültige Prognose vom 26 um 09 UTC bis 26 um 18 UTC
Wind 2 kt aus unterschiedlichen Richtungen
Sichtweite 10 km oder mehr
Leicht bewölkt in der Höhe von 6000 ft
Durchbrochene Bewölkung in der Höhe von 12000 ft
Zeitweise
vom 26 um 09 UTC bis 26 um 18 UTC
Wind 7 kt aus Nordost
Leicht bewölkt in der Höhe von 6000 ft
Aufgelockert bewölkt in der Höhe von 12000 ft

TAF: LOXA 260815Z 2609/2618 VRB02KT 9999 FEW060 BKN120 TEMPO 2609/2618 04007KT FEW060 SCT120

Wetterbeobachtungen und Prognosen von mehr als 4000 Flughäfen (METAR und TAF Bericht).

Die verfügbaren Stationen werden durch gelbe und rote Markierungen auf der Karte dargestellt.

Führen Sie die Maus auf sie, um den Namen der Station zu sehen.

Darauf klicken, um die Beobachtung von Wetterbeobachtungen und Prognosen zu sehen.

Um die Karte zu ändern : klicken Sie auf den grünen Tasten mit einem schwarzen Kreuz Zum Vergrößern, auf den grünen Button mit einem Gedankenstrich zu verkleinern, oder auf die grünen Pfeile für benachbarte Karten.


METAR-TAF: